Time;durP1;ratioP1;P1;durP2;ratioP2;P2;SDS_P1;SDS_P2;PMS_P1;PMS_P2;Temp;Humidity;BMP_temperature;BMP_pressure;BME280_temperature;BME280_humidity;BME280_pressure;Samples;Min_cycle;Max_cycle;Signal;HPM_P1;HPM_P2
2023/03/15 00:01:27;;;;;;;6.20;3.15;;;;;;;;;;10308007;28;20038;-75
2023/03/15 00:06:32;;;;;;;7.82;3.08;;;;;;;;;;10308617;28;20046;-76
2023/03/15 00:11:32;;;;;;;7.22;2.25;;;;;;;;;;10315129;28;20658;-77
2023/03/15 00:16:33;;;;;;;5.15;2.53;;;;;;;;;;10326343;28;20056;-76
2023/03/15 00:21:36;;;;;;;7.38;2.28;;;;;;;;;;10325528;28;20129;-77
2023/03/15 00:26:37;;;;;;;4.50;2.20;;;;;;;;;;10327848;28;20062;-73
2023/03/15 00:31:37;;;;;;;6.97;1.85;;;;;;;;;;10336931;28;20039;-75
2023/03/15 00:36:42;;;;;;;4.65;1.70;;;;;;;;;;10331975;28;20043;-75
2023/03/15 00:41:44;;;;;;;11.40;3.03;;;;;;;;;;10318443;28;20546;-76
2023/03/15 00:46:44;;;;;;;7.97;2.30;;;;;;;;;;10300480;28;20054;-78
2023/03/15 00:51:45;;;;;;;4.47;1.90;;;;;;;;;;10307491;28;20436;-77
2023/03/15 00:56:46;;;;;;;6.07;2.10;;;;;;;;;;10325810;28;20147;-77
2023/03/15 01:01:49;;;;;;;5.43;2.15;;;;;;;;;;10315729;28;20088;-77
2023/03/15 01:06:50;;;;;;;7.15;2.72;;;;;;;;;;10325351;28;20086;-75
2023/03/15 01:11:52;;;;;;;4.05;2.08;;;;;;;;;;10304054;28;20054;-76
2023/03/15 01:16:52;;;;;;;2.78;1.45;;;;;;;;;;10332966;28;20156;-76
2023/03/15 01:21:53;;;;;;;4.40;1.23;;;;;;;;;;10352150;28;20062;-77
2023/03/15 01:26:53;;;;;;;2.28;1.50;;;;;;;;;;10357869;28;20077;-79
2023/03/15 01:31:54;;;;;;;7.88;1.90;;;;;;;;;;10343710;28;20065;-77
2023/03/15 01:36:56;;;;;;;4.70;1.50;;;;;;;;;;10350811;28;20493;-76
2023/03/15 01:42:02;;;;;;;4.20;1.83;;;;;;;;;;10363757;28;20049;-77
2023/03/15 01:47:03;;;;;;;5.72;1.50;;;;;;;;;;10350867;28;20050;-77
2023/03/15 01:52:26;;;;;;;2.50;1.50;;;;;;;;;;10353778;28;20057;-76
2023/03/15 01:57:35;;;;;;;3.35;1.70;;;;;;;;;;10300947;28;20495;-76
2023/03/15 02:02:45;;;;;;;2.05;1.50;;;;;;;;;;10318069;28;20054;-76
2023/03/15 02:07:53;;;;;;;2.72;1.30;;;;;;;;;;10299601;28;20038;-75
2023/03/15 02:12:56;;;;;;;4.38;1.48;;;;;;;;;;10343424;28;20072;-77
2023/03/15 02:17:57;;;;;;;3.07;1.43;;;;;;;;;;10314758;28;20072;-78
2023/03/15 02:23:02;;;;;;;2.58;1.88;;;;;;;;;;10297808;28;20065;-77
2023/03/15 02:28:05;;;;;;;3.35;1.83;;;;;;;;;;10281346;28;20136;-76
2023/03/15 02:33:11;;;;;;;3.75;2.17;;;;;;;;;;10272854;28;20050;-75
2023/03/15 02:38:12;;;;;;;3.50;1.80;;;;;;;;;;10307986;28;20438;-76
2023/03/15 02:43:22;;;;;;;4.13;1.80;;;;;;;;;;10314728;28;20062;-77
2023/03/15 02:48:22;;;;;;;6.40;2.40;;;;;;;;;;10350845;28;20046;-76
2023/03/15 02:53:23;;;;;;;5.15;2.67;;;;;;;;;;10331032;28;20046;-75
2023/03/15 02:58:28;;;;;;;7.07;3.45;;;;;;;;;;10299439;28;20122;-75
2023/03/15 03:03:29;;;;;;;9.20;4.28;;;;;;;;;;10312693;28;20105;-75
2023/03/15 03:08:34;;;;;;;9.05;4.10;;;;;;;;;;10298285;28;20062;-75
2023/03/15 03:13:35;;;;;;;9.45;4.32;;;;;;;;;;10298706;28;20548;-75
2023/03/15 03:18:41;;;;;;;9.02;4.45;;;;;;;;;;10313347;28;20047;-76
2023/03/15 03:23:45;;;;;;;10.48;3.65;;;;;;;;;;10294526;28;20557;-77
2023/03/15 03:28:46;;;;;;;5.25;3.15;;;;;;;;;;10294648;28;20050;-76
2023/03/15 03:33:48;;;;;;;6.68;3.33;;;;;;;;;;10300669;28;20066;-76
2023/03/15 03:38:52;;;;;;;7.55;3.42;;;;;;;;;;10321904;28;20566;-78
2023/03/15 03:43:54;;;;;;;6.32;3.67;;;;;;;;;;10293440;28;20126;-78
2023/03/15 03:48:57;;;;;;;9.52;4.82;;;;;;;;;;10293577;28;20446;-79
2023/03/15 03:54:02;;;;;;;13.98;5.20;;;;;;;;;;10308950;28;20051;-77
2023/03/15 03:59:03;;;;;;;11.27;5.47;;;;;;;;;;10308620;28;20049;-77
2023/03/15 04:04:16;;;;;;;12.77;6.43;;;;;;;;;;10314301;28;20062;-76
2023/03/15 04:09:18;;;;;;;10.43;5.45;;;;;;;;;;10297038;28;20042;-77
2023/03/15 04:14:21;;;;;;;10.52;6.28;;;;;;;;;;10311803;28;20106;-75
2023/03/15 04:19:25;;;;;;;9.80;5.67;;;;;;;;;;10293299;28;20054;-77
2023/03/15 04:24:26;;;;;;;11.82;5.35;;;;;;;;;;10308231;28;20514;-76
2023/03/15 04:29:36;;;;;;;11.10;5.50;;;;;;;;;;10275398;28;20553;-76
2023/03/15 04:34:58;;;;;;;10.48;4.43;;;;;;;;;;10307922;28;20089;-76
2023/03/15 04:40:12;;;;;;;12.82;6.05;;;;;;;;;;10283579;28;20089;-75
2023/03/15 04:45:32;;;;;;;10.98;5.95;;;;;;;;;;10310246;28;20058;-76
2023/03/15 04:50:54;;;;;;;15.60;5.90;;;;;;;;;;10296797;28;20049;-75
2023/03/15 04:56:15;;;;;;;15.55;6.47;;;;;;;;;;10319789;28;20034;-75
2023/03/15 05:01:30;;;;;;;11.20;6.15;;;;;;;;;;10298986;28;20043;-77
2023/03/15 05:06:51;;;;;;;15.68;6.55;;;;;;;;;;10296612;28;20133;-77
2023/03/15 05:12:12;;;;;;;14.00;6.85;;;;;;;;;;10311781;28;20034;-75
2023/03/15 05:17:35;;;;;;;17.77;8.00;;;;;;;;;;10315762;28;20050;-74
2023/03/15 05:23:07;;;;;;;13.77;7.35;;;;;;;;;;10297536;28;20189;-74
2023/03/15 05:28:35;;;;;;;14.25;7.45;;;;;;;;;;10284397;28;20113;-77
2023/03/15 05:33:56;;;;;;;18.90;8.05;;;;;;;;;;10315075;28;20502;-76
2023/03/15 05:39:21;;;;;;;;;;;;;;;;;;10293520;28;20530;-77
2023/03/15 05:44:42;;;;;;;18.25;7.55;;;;;;;;;;10298232;28;19921;-76
2023/03/15 05:49:52;;;;;;;15.55;7.53;;;;;;;;;;10295889;28;20097;-76
2023/03/15 05:55:03;;;;;;;16.25;7.20;;;;;;;;;;10296690;28;20161;-75
2023/03/15 06:00:36;;;;;;;16.25;7.07;;;;;;;;;;10286924;28;20060;-75
2023/03/15 06:05:45;;;;;;;16.55;6.60;;;;;;;;;;10311616;28;20058;-75
2023/03/15 06:10:52;;;;;;;17.30;6.63;;;;;;;;;;10296160;28;20046;-76
2023/03/15 06:15:54;;;;;;;12.23;4.88;;;;;;;;;;10294583;28;20050;-75
2023/03/15 06:20:54;;;;;;;14.57;5.40;;;;;;;;;;10311404;28;20049;-74
2023/03/15 06:25:56;;;;;;;13.15;5.70;;;;;;;;;;10312398;28;20503;-77
2023/03/15 06:30:56;;;;;;;11.43;6.10;;;;;;;;;;10311069;28;20054;-75
2023/03/15 06:36:06;;;;;;;16.55;6.32;;;;;;;;;;10297301;28;20049;-77
2023/03/15 06:41:07;;;;;;;28.90;13.43;;;;;;;;;;10311313;28;20060;-77
2023/03/15 06:46:10;;;;;;;12.33;6.67;;;;;;;;;;10302730;28;20058;-76
2023/03/15 06:51:11;;;;;;;11.10;5.82;;;;;;;;;;10286524;28;20537;-76
2023/03/15 06:56:11;;;;;;;12.70;6.35;;;;;;;;;;10295900;28;20122;-77
2023/03/15 07:01:12;;;;;;;11.55;6.60;;;;;;;;;;10308149;28;20097;-76
2023/03/15 07:06:14;;;;;;;13.48;7.28;;;;;;;;;;10296313;28;20073;-79
2023/03/15 07:11:14;;;;;;;13.48;6.68;;;;;;;;;;10311818;28;20355;-80
2023/03/15 07:16:15;;;;;;;11.90;6.35;;;;;;;;;;10314471;28;20038;-80
2023/03/15 07:21:15;;;;;;;11.80;6.22;;;;;;;;;;10275549;28;20092;-81
2023/03/15 07:26:15;;;;;;;15.60;6.57;;;;;;;;;;10292173;28;20100;-77
2023/03/15 07:31:17;;;;;;;10.35;6.20;;;;;;;;;;10312421;28;20038;-76
2023/03/15 07:36:18;;;;;;;16.17;8.20;;;;;;;;;;10317430;28;20206;-78
2023/03/15 07:41:19;;;;;;;10.80;6.75;;;;;;;;;;10319951;28;20121;-78
2023/03/15 07:46:40;;;;;;;9.82;5.50;;;;;;;;;;10304856;28;20080;-78
2023/03/15 07:51:41;;;;;;;11.45;6.75;;;;;;;;;;10302677;28;20050;-77
2023/03/15 07:56:41;;;;;;;8.50;5.60;;;;;;;;;;10314321;28;20042;-76
2023/03/15 08:01:42;;;;;;;7.28;4.97;;;;;;;;;;10310720;28;20050;-78
2023/03/15 08:06:42;;;;;;;7.65;4.85;;;;;;;;;;10309356;28;20085;-77
2023/03/15 08:11:42;;;;;;;10.87;5.13;;;;;;;;;;10308258;28;20081;-76
2023/03/15 08:16:43;;;;;;;9.38;5.80;;;;;;;;;;10303959;28;20296;-78
2023/03/15 08:21:45;;;;;;;8.00;5.50;;;;;;;;;;10308406;28;20053;-77
2023/03/15 08:26:45;;;;;;;10.88;5.03;;;;;;;;;;10310150;28;20059;-78
2023/03/15 08:31:46;;;;;;;8.18;4.20;;;;;;;;;;10298466;28;20517;-76
2023/03/15 08:36:47;;;;;;;11.23;4.53;;;;;;;;;;10317997;28;20108;-77
2023/03/15 08:41:51;;;;;;;8.88;4.43;;;;;;;;;;10286505;28;20093;-77
2023/03/15 08:46:51;;;;;;;8.23;4.45;;;;;;;;;;10315166;28;20069;-75
2023/03/15 08:51:51;;;;;;;7.07;4.07;;;;;;;;;;10318594;28;20390;-76
2023/03/15 08:56:53;;;;;;;8.68;4.07;;;;;;;;;;10285704;28;20047;-76
2023/03/15 09:01:53;;;;;;;8.65;3.80;;;;;;;;;;10316072;28;20126;-76
2023/03/15 09:06:54;;;;;;;5.70;3.53;;;;;;;;;;10317717;28;20054;-76
2023/03/15 09:11:55;;;;;;;6.68;3.78;;;;;;;;;;10318105;28;21069;-77
2023/03/15 09:16:55;;;;;;;5.45;4.18;;;;;;;;;;10301604;28;20486;-76
2023/03/15 09:21:55;;;;;;;10.50;3.50;;;;;;;;;;10307046;28;20081;-76
2023/03/15 09:26:56;;;;;;;4.80;2.65;;;;;;;;;;10320905;28;20426;-75
2023/03/15 09:31:57;;;;;;;6.97;3.13;;;;;;;;;;10319517;28;20482;-76
2023/03/15 09:36:57;;;;;;;7.00;3.47;;;;;;;;;;10317328;28;20077;-75
2023/03/15 09:41:59;;;;;;;4.68;2.60;;;;;;;;;;10304216;28;20054;-78
2023/03/15 09:47:09;;;;;;;7.47;3.05;;;;;;;;;;10312950;28;20061;-77
2023/03/15 09:52:27;;;;;;;7.22;3.50;;;;;;;;;;10313610;28;20092;-77
2023/03/15 09:57:40;;;;;;;4.55;3.60;;;;;;;;;;10293719;28;20221;-75
2023/03/15 10:02:47;;;;;;;7.93;4.25;;;;;;;;;;10320120;28;20050;-77
2023/03/15 10:07:48;;;;;;;8.07;4.22;;;;;;;;;;10317203;28;20134;-77
2023/03/15 10:13:10;;;;;;;5.60;4.15;;;;;;;;;;10317549;28;20079;-78
2023/03/15 10:18:16;;;;;;;12.00;3.95;;;;;;;;;;10286225;28;20065;-78
2023/03/15 10:23:35;;;;;;;7.25;3.65;;;;;;;;;;10293525;28;20057;-77
2023/03/15 10:28:36;;;;;;;7.22;4.20;;;;;;;;;;10313254;28;20115;-77
2023/03/15 10:33:37;;;;;;;7.45;4.10;;;;;;;;;;10293101;28;20054;-75
2023/03/15 10:38:38;;;;;;;8.48;4.90;;;;;;;;;;10312127;28;20046;-76
2023/03/15 10:43:40;;;;;;;10.07;4.22;;;;;;;;;;10296164;28;20078;-77
2023/03/15 10:48:58;;;;;;;8.00;4.22;;;;;;;;;;10285629;28;20046;-78
2023/03/15 10:54:01;;;;;;;6.70;4.18;;;;;;;;;;10309669;28;20078;-76
2023/03/15 10:59:02;;;;;;;7.07;3.88;;;;;;;;;;10327828;28;20078;-77
2023/03/15 11:04:05;;;;;;;7.97;4.68;;;;;;;;;;10321626;28;20054;-77
2023/03/15 11:09:05;;;;;;;;;;;;;;;;;;10333446;28;20056;-78
2023/03/15 11:14:06;;;;;;;6.15;3.70;;;;;;;;;;10339941;28;19965;-77
2023/03/15 11:19:16;;;;;;;6.82;3.92;;;;;;;;;;10352433;28;20050;-76
2023/03/15 11:24:24;;;;;;;7.45;3.58;;;;;;;;;;10359226;28;20106;-78
2023/03/15 11:29:26;;;;;;;5.47;2.95;;;;;;;;;;10335317;28;20125;-76
2023/03/15 11:34:41;;;;;;;4.30;3.17;;;;;;;;;;10316968;28;20130;-79
2023/03/15 11:39:44;;;;;;;4.22;2.30;;;;;;;;;;10297037;28;20056;-77
2023/03/15 11:44:50;;;;;;;5.80;3.00;;;;;;;;;;10326948;28;20047;-76
2023/03/15 11:49:52;;;;;;;3.63;2.45;;;;;;;;;;10302920;28;20120;-79
2023/03/15 11:54:59;;;;;;;3.45;2.35;;;;;;;;;;10318537;28;20065;-77
2023/03/15 12:00:15;;;;;;;4.13;2.60;;;;;;;;;;10286317;28;20510;-79
2023/03/15 12:05:35;;;;;;;3.75;2.50;;;;;;;;;;10295771;28;20069;-78
2023/03/15 12:10:43;;;;;;;4.68;2.88;;;;;;;;;;10284473;28;20491;-77
2023/03/15 12:15:46;;;;;;;4.50;2.92;;;;;;;;;;10299915;28;20086;-76
2023/03/15 12:21:05;;;;;;;8.15;3.15;;;;;;;;;;10318551;28;20045;-75
2023/03/15 12:26:09;;;;;;;4.60;2.67;;;;;;;;;;10297596;28;20554;-76
2023/03/15 12:31:14;;;;;;;6.88;3.22;;;;;;;;;;10315855;28;20053;-76
2023/03/15 12:36:19;;;;;;;3.58;2.03;;;;;;;;;;10310257;28;20069;-78
2023/03/15 12:41:52;;;;;;;2.70;2.05;;;;;;;;;;10315342;28;20049;-75
2023/03/15 12:46:55;;;;;;;4.05;2.10;;;;;;;;;;10283656;28;20582;-76
2023/03/15 12:51:57;;;;;;;3.08;1.90;;;;;;;;;;10299178;28;20491;-76
2023/03/15 12:56:59;;;;;;;2.93;2.10;;;;;;;;;;10293336;28;20578;-76
2023/03/15 13:02:07;;;;;;;4.45;1.98;;;;;;;;;;10315723;28;20377;-76
2023/03/15 13:07:28;;;;;;;4.00;2.40;;;;;;;;;;10316348;28;20077;-76
2023/03/15 13:12:33;;;;;;;5.05;2.45;;;;;;;;;;10314909;28;20124;-78
2023/03/15 13:17:48;;;;;;;4.88;3.72;;;;;;;;;;10315803;28;20477;-76
2023/03/15 13:23:08;;;;;;;3.38;2.60;;;;;;;;;;10293055;28;20530;-76
2023/03/15 13:28:26;;;;;;;3.00;2.33;;;;;;;;;;10313771;28;20072;-78
2023/03/15 13:33:31;;;;;;;3.00;2.28;;;;;;;;;;10297101;28;20081;-76
2023/03/15 13:38:42;;;;;;;5.03;2.70;;;;;;;;;;10313151;28;20054;-76
2023/03/15 13:43:43;;;;;;;3.17;2.03;;;;;;;;;;10311126;28;20058;-76
2023/03/15 13:48:45;;;;;;;2.90;2.25;;;;;;;;;;10311828;28;20057;-76
2023/03/15 13:53:46;;;;;;;4.68;2.20;;;;;;;;;;10316729;28;20052;-78
2023/03/15 13:58:48;;;;;;;3.25;2.10;;;;;;;;;;10312863;28;20169;-77
2023/03/15 14:03:56;;;;;;;3.45;2.20;;;;;;;;;;10310066;28;20108;-78
2023/03/15 14:09:05;;;;;;;2.90;2.13;;;;;;;;;;10291559;28;20054;-78
2023/03/15 14:14:26;;;;;;;3.15;2.05;;;;;;;;;;10292102;28;20046;-76
2023/03/15 14:19:28;;;;;;;3.63;2.67;;;;;;;;;;10310244;28;20042;-76
2023/03/15 14:24:38;;;;;;;3.80;2.35;;;;;;;;;;10304425;28;20447;-75
2023/03/15 14:29:52;;;;;;;3.67;2.63;;;;;;;;;;10310934;28;20066;-76
2023/03/15 14:34:53;;;;;;;;;;;;;;;;;;10309424;28;20050;-76
2023/03/15 14:40:14;;;;;;;4.47;3.45;;;;;;;;;;10309236;28;19920;-74
2023/03/15 14:45:16;;;;;;;3.65;2.30;;;;;;;;;;10293632;28;20073;-75
2023/03/15 14:50:18;;;;;;;5.22;2.72;;;;;;;;;;10313656;28;20042;-76
2023/03/15 14:55:22;;;;;;;2.27;2.07;;;;;;;;;;10296306;28;20050;-77
2023/03/15 15:00:30;;;;;;;2.95;2.70;;;;;;;;;;10327396;28;20047;-77
2023/03/15 15:05:32;;;;;;;3.05;2.22;;;;;;;;;;10306289;28;20562;-78
2023/03/15 15:10:33;;;;;;;2.58;2.15;;;;;;;;;;10305820;28;20077;-77
2023/03/15 15:15:35;;;;;;;2.42;2.22;;;;;;;;;;10312848;28;20055;-78
2023/03/15 15:20:36;;;;;;;3.40;2.60;;;;;;;;;;10292211;28;20507;-77
2023/03/15 15:25:38;;;;;;;5.22;2.40;;;;;;;;;;10302913;28;20066;-78
2023/03/15 15:30:39;;;;;;;4.35;2.90;;;;;;;;;;10309848;28;20042;-78
2023/03/15 15:35:39;;;;;;;3.85;2.40;;;;;;;;;;10291364;28;20042;-80
2023/03/15 15:40:39;;;;;;;4.47;2.85;;;;;;;;;;10294709;28;20050;-77
2023/03/15 15:45:40;;;;;;;4.95;2.97;;;;;;;;;;10308514;28;20058;-76
2023/03/15 15:50:41;;;;;;;3.55;2.70;;;;;;;;;;10292910;28;20046;-76
2023/03/15 15:55:43;;;;;;;3.50;2.72;;;;;;;;;;10293733;28;20051;-79
2023/03/15 16:00:43;;;;;;;4.00;2.97;;;;;;;;;;10288131;28;20054;-76
2023/03/15 16:05:44;;;;;;;4.28;3.20;;;;;;;;;;10290686;28;20058;-77
2023/03/15 16:10:45;;;;;;;4.00;2.85;;;;;;;;;;10308267;28;20050;-77
2023/03/15 16:15:46;;;;;;;1.23;1.13;;;;;;;;;;10287546;28;20042;-77
2023/03/15 16:20:47;;;;;;;3.58;1.40;;;;;;;;;;10308021;28;20052;-78
2023/03/15 16:25:52;;;;;;;3.15;2.00;;;;;;;;;;10310012;28;20148;-78
2023/03/15 16:30:52;;;;;;;2.53;1.90;;;;;;;;;;10309420;28;20047;-76
2023/03/15 16:35:55;;;;;;;3.25;2.08;;;;;;;;;;10290121;28;20387;-74
2023/03/15 16:40:56;;;;;;;3.13;2.83;;;;;;;;;;10309734;28;20387;-77
2023/03/15 16:45:56;;;;;;;5.25;2.20;;;;;;;;;;10308585;28;20054;-77
2023/03/15 16:50:56;;;;;;;4.15;3.17;;;;;;;;;;10309804;28;20050;-75
2023/03/15 16:55:57;;;;;;;4.80;3.05;;;;;;;;;;10311480;28;20738;-80
2023/03/15 17:00:57;;;;;;;4.72;3.08;;;;;;;;;;10297332;28;20050;-81
2023/03/15 17:05:59;;;;;;;5.30;3.50;;;;;;;;;;10296481;28;20078;-77
2023/03/15 17:11:02;;;;;;;5.97;3.40;;;;;;;;;;10313579;28;20042;-79
2023/03/15 17:16:03;;;;;;;3.80;2.90;;;;;;;;;;10314366;28;20613;-77
2023/03/15 17:21:03;;;;;;;4.55;2.80;;;;;;;;;;10317013;28;20039;-79
2023/03/15 17:26:07;;;;;;;4.70;2.40;;;;;;;;;;10321081;28;20541;-77
2023/03/15 17:31:16;;;;;;;3.60;2.85;;;;;;;;;;10324219;28;21214;-76
2023/03/15 17:36:22;;;;;;;4.55;2.80;;;;;;;;;;10323059;28;20605;-78
2023/03/15 17:41:30;;;;;;;3.80;2.50;;;;;;;;;;10315818;28;20049;-77
2023/03/15 17:46:31;;;;;;;5.90;2.88;;;;;;;;;;10293587;28;20112;-78
2023/03/15 17:51:33;;;;;;;8.70;5.00;;;;;;;;;;10311269;28;20494;-75
2023/03/15 17:56:35;;;;;;;4.05;2.95;;;;;;;;;;10294634;28;20117;-77
2023/03/15 18:01:37;;;;;;;4.30;2.85;;;;;;;;;;10312526;28;20047;-77
2023/03/15 18:06:37;;;;;;;6.88;3.70;;;;;;;;;;10291247;28;20062;-80
2023/03/15 18:11:42;;;;;;;4.50;3.55;;;;;;;;;;10298248;28;20053;-82
2023/03/15 18:16:44;;;;;;;5.93;3.60;;;;;;;;;;10314278;28;20050;-77
2023/03/15 18:21:44;;;;;;;6.97;3.72;;;;;;;;;;10318939;28;20092;-77
2023/03/15 18:26:46;;;;;;;6.28;3.88;;;;;;;;;;10294132;28;20125;-78
2023/03/15 18:31:47;;;;;;;4.30;3.38;;;;;;;;;;10313484;28;20441;-78
2023/03/15 18:36:48;;;;;;;5.35;3.88;;;;;;;;;;10295343;28;20055;-76
2023/03/15 18:41:48;;;;;;;9.60;5.55;;;;;;;;;;10294619;28;20039;-77
2023/03/15 18:46:50;;;;;;;9.63;7.00;;;;;;;;;;10315361;28;20119;-77
2023/03/15 18:51:55;;;;;;;9.20;6.80;;;;;;;;;;10320924;28;20108;-79
2023/03/15 18:56:55;;;;;;;9.43;6.65;;;;;;;;;;10306840;28;20049;-80
2023/03/15 19:02:11;;;;;;;10.60;8.43;;;;;;;;;;10321456;28;20055;-76
2023/03/15 19:07:11;;;;;;;13.57;9.50;;;;;;;;;;10301151;28;20046;-75
2023/03/15 19:12:12;;;;;;;14.88;10.32;;;;;;;;;;10331254;28;20465;-78
2023/03/15 19:17:16;;;;;;;12.52;9.18;;;;;;;;;;10303533;28;20048;-80
2023/03/15 19:22:17;;;;;;;14.32;10.15;;;;;;;;;;10337577;28;20046;-79
2023/03/15 19:27:18;;;;;;;14.73;9.13;;;;;;;;;;10324589;28;20073;-78
2023/03/15 19:32:19;;;;;;;19.20;8.48;;;;;;;;;;10316994;28;20406;-78
2023/03/15 19:37:20;;;;;;;12.85;7.85;;;;;;;;;;10301558;28;20495;-77
2023/03/15 19:42:21;;;;;;;14.30;10.30;;;;;;;;;;10283184;28;20046;-78
2023/03/15 19:47:21;;;;;;;17.90;11.50;;;;;;;;;;10319491;28;20153;-75
2023/03/15 19:52:22;;;;;;;15.90;11.40;;;;;;;;;;10303111;28;20065;-76
2023/03/15 19:57:23;;;;;;;16.42;11.43;;;;;;;;;;10325891;28;20042;-79
2023/03/15 20:02:24;;;;;;;20.73;12.93;;;;;;;;;;10308946;28;20046;-77
2023/03/15 20:07:28;;;;;;;20.38;13.02;;;;;;;;;;10303009;28;20046;-76
2023/03/15 20:12:28;;;;;;;18.55;12.85;;;;;;;;;;10323711;28;20108;-76
2023/03/15 20:17:29;;;;;;;17.17;12.18;;;;;;;;;;10320656;28;20043;-79
2023/03/15 20:22:32;;;;;;;20.55;12.18;;;;;;;;;;10331794;28;20038;-75
2023/03/15 20:27:33;;;;;;;18.80;12.35;;;;;;;;;;10320634;28;20636;-77
2023/03/15 20:32:34;;;;;;;27.60;14.15;;;;;;;;;;10349411;28;20031;-78
2023/03/15 20:37:41;;;;;;;29.33;16.47;;;;;;;;;;10350434;28;20050;-80
2023/03/15 20:42:45;;;;;;;24.42;14.00;;;;;;;;;;10364613;28;20565;-80
2023/03/15 20:47:47;;;;;;;20.55;13.80;;;;;;;;;;10350711;28;20061;-82
2023/03/15 20:52:48;;;;;;;20.98;13.27;;;;;;;;;;10365575;28;20129;-80
2023/03/15 20:57:50;;;;;;;21.73;13.75;;;;;;;;;;10369257;28;20050;-79
2023/03/15 21:02:51;;;;;;;21.58;12.75;;;;;;;;;;10335821;28;20077;-75
2023/03/15 21:07:52;;;;;;;18.98;11.70;;;;;;;;;;10335333;28;20042;-77
2023/03/15 21:12:54;;;;;;;19.85;11.63;;;;;;;;;;10307048;28;20446;-75
2023/03/15 21:17:54;;;;;;;16.00;10.23;;;;;;;;;;10301641;28;20050;-76
2023/03/15 21:22:55;;;;;;;14.90;10.63;;;;;;;;;;10316715;28;20042;-78
2023/03/15 21:27:56;;;;;;;19.15;11.88;;;;;;;;;;10298680;28;20077;-76
2023/03/15 21:32:57;;;;;;;21.30;12.48;;;;;;;;;;10299057;28;20116;-75
2023/03/15 21:37:58;;;;;;;18.70;12.07;;;;;;;;;;10297454;28;20132;-79
2023/03/15 21:42:59;;;;;;;17.17;12.82;;;;;;;;;;10316542;28;20046;-76
2023/03/15 21:48:02;;;;;;;22.38;14.18;;;;;;;;;;10297365;28;20142;-76
2023/03/15 21:53:02;;;;;;;22.73;14.50;;;;;;;;;;10316679;28;20117;-76
2023/03/15 21:58:03;;;;;;;24.65;14.82;;;;;;;;;;10292834;28;20995;-76
2023/03/15 22:03:04;;;;;;;23.48;14.23;;;;;;;;;;10313190;28;20042;-78
2023/03/15 22:08:04;;;;;;;23.63;14.30;;;;;;;;;;10310665;28;20968;-76
2023/03/15 22:13:06;;;;;;;26.27;15.10;;;;;;;;;;10315459;28;20057;-76
2023/03/15 22:18:06;;;;;;;23.25;13.48;;;;;;;;;;10285521;28;20165;-73
2023/03/15 22:23:10;;;;;;;22.15;14.10;;;;;;;;;;10322697;28;21263;-77
2023/03/15 22:28:10;;;;;;;21.77;12.48;;;;;;;;;;10293856;28;20057;-75
2023/03/15 22:33:12;;;;;;;19.42;11.63;;;;;;;;;;10307733;28;20517;-76
2023/03/15 22:38:13;;;;;;;17.77;11.27;;;;;;;;;;10279891;28;20781;-76
2023/03/15 22:43:14;;;;;;;16.00;10.35;;;;;;;;;;10312922;28;20056;-78
2023/03/15 22:48:14;;;;;;;17.58;10.52;;;;;;;;;;10312382;28;20501;-77
2023/03/15 22:53:16;;;;;;;16.15;9.45;;;;;;;;;;10295885;28;20053;-82
2023/03/15 22:58:17;;;;;;;18.55;10.10;;;;;;;;;;10278276;28;20061;-76
2023/03/15 23:03:18;;;;;;;14.88;9.43;;;;;;;;;;10301100;28;20057;-78
2023/03/15 23:08:18;;;;;;;16.15;9.73;;;;;;;;;;10313369;28;20086;-80
2023/03/15 23:13:20;;;;;;;16.35;10.15;;;;;;;;;;10292609;28;20050;-80
2023/03/15 23:18:21;;;;;;;20.95;12.02;;;;;;;;;;10274755;28;20038;-80
2023/03/15 23:23:21;;;;;;;19.25;13.10;;;;;;;;;;10326222;28;20433;-81
2023/03/15 23:28:23;;;;;;;25.98;14.38;;;;;;;;;;10302671;28;20042;-80
2023/03/15 23:33:24;;;;;;;20.75;12.68;;;;;;;;;;10331435;28;20050;-81
2023/03/15 23:38:26;;;;;;;25.13;14.80;;;;;;;;;;10305732;28;20042;-80
2023/03/15 23:43:30;;;;;;;20.55;12.68;;;;;;;;;;10312872;28;20054;-78
2023/03/15 23:48:34;;;;;;;25.02;13.77;;;;;;;;;;10306045;28;20047;-79
2023/03/15 23:53:35;;;;;;;23.48;13.10;;;;;;;;;;10309278;28;21037;-82
2023/03/15 23:58:36;;;;;;;23.48;13.00;;;;;;;;;;10310070;28;20085;-79
